createdAt,value
2022-12-01T00:02:04.179Z,1.73
2022-12-01T00:04:31.957Z,1.62
2022-12-01T00:06:59.396Z,1.61
2022-12-01T00:09:45.452Z,1.57
2022-12-01T00:12:13.191Z,1.67
2022-12-01T00:14:40.648Z,2.02
2022-12-01T00:17:08.548Z,2.01
2022-12-01T00:19:36.296Z,2.04
2022-12-01T00:22:04.345Z,1.99
2022-12-01T00:24:31.833Z,2.07
2022-12-01T00:26:59.613Z,1.89
2022-12-01T00:29:27.244Z,1.71
2022-12-01T00:31:54.752Z,1.78
2022-12-01T00:34:24.947Z,1.64
2022-12-01T00:36:52.656Z,1.74
2022-12-01T00:39:21.564Z,1.65
2022-12-01T00:41:49.367Z,1.74
2022-12-01T00:44:16.869Z,1.80
2022-12-01T00:46:44.392Z,1.83
2022-12-01T00:49:15.611Z,1.84
2022-12-01T00:51:43.092Z,1.62
2022-12-01T00:54:10.596Z,1.77
2022-12-01T00:56:38.394Z,1.65
2022-12-01T00:59:05.961Z,1.58
2022-12-01T01:01:33.541Z,1.71
2022-12-01T01:04:01.556Z,1.81
2022-12-01T01:06:29.715Z,1.85
2022-12-01T01:08:57.251Z,1.86
2022-12-01T01:11:25.675Z,1.80
2022-12-01T01:13:53.168Z,1.69
2022-12-01T01:16:21.924Z,1.65
2022-12-01T01:18:49.831Z,1.87
2022-12-01T01:21:21.107Z,1.82
2022-12-01T01:23:49.887Z,1.79
2022-12-01T01:26:26.897Z,1.80
2022-12-01T01:29:00.557Z,1.65
2022-12-01T01:31:29.905Z,1.69
2022-12-01T01:33:58.144Z,1.67
2022-12-01T01:36:26.043Z,1.59
2022-12-01T01:38:55.213Z,1.66
2022-12-01T01:41:23.973Z,1.50
2022-12-01T01:44:00.669Z,1.42
2022-12-01T01:46:33.996Z,1.54
2022-12-01T01:49:10.412Z,1.44
2022-12-01T01:51:51.210Z,1.51
2022-12-01T01:54:26.576Z,1.61
2022-12-01T01:56:57.472Z,1.64
2022-12-01T01:59:29.913Z,1.53
2022-12-01T02:02:03.565Z,1.50
2022-12-01T02:04:32.689Z,1.78
2022-12-01T02:07:00.212Z,1.89
2022-12-01T02:09:27.749Z,1.80
2022-12-01T02:12:17.300Z,1.90
2022-12-01T02:15:12.777Z,1.93
2022-12-01T02:17:46.280Z,1.72
2022-12-01T02:20:34.577Z,1.77
2022-12-01T02:23:21.036Z,1.65
2022-12-01T02:25:57.981Z,1.47
2022-12-01T02:28:38.106Z,1.47
2022-12-01T02:31:05.448Z,1.36
2022-12-01T02:33:40.406Z,1.40
2022-12-01T02:36:43.435Z,1.36
2022-12-01T02:39:22.013Z,1.42
2022-12-01T02:41:54.141Z,1.26
2022-12-01T02:44:36.452Z,1.12
2022-12-01T02:47:11.137Z,1.13
2022-12-01T02:49:43.820Z,1.06
2022-12-01T02:52:11.592Z,0.98
2022-12-01T02:54:39.957Z,1.07
2022-12-01T02:57:12.325Z,1.02
2022-12-01T02:59:42.560Z,1.11
2022-12-01T03:02:24.571Z,1.14
2022-12-01T03:05:11.128Z,1.10
2022-12-01T03:07:54.182Z,1.11
2022-12-01T03:10:44.541Z,1.14
2022-12-01T03:13:39.695Z,1.09
2022-12-01T03:16:27.324Z,1.13
2022-12-01T03:19:01.100Z,1.16
2022-12-01T03:21:48.236Z,1.09
2022-12-01T03:24:20.112Z,1.08
2022-12-01T03:26:55.488Z,1.13
2022-12-01T03:29:38.741Z,1.07
2022-12-01T03:32:26.429Z,1.21
2022-12-01T03:34:59.187Z,1.00
2022-12-01T03:37:33.597Z,1.19
2022-12-01T03:40:06.334Z,1.13
2022-12-01T03:42:39.092Z,0.99
2022-12-01T03:45:11.993Z,1.08
2022-12-01T03:47:40.495Z,1.13
2022-12-01T03:50:13.332Z,1.14
2022-12-01T03:52:49.948Z,1.01
2022-12-01T03:55:33.228Z,1.07
2022-12-01T03:58:14.935Z,0.98
2022-12-01T04:00:43.761Z,1.10
2022-12-01T04:03:18.096Z,0.95
2022-12-01T04:05:46.084Z,0.88
2022-12-01T04:08:13.990Z,0.77
2022-12-01T04:10:41.408Z,0.73
2022-12-01T04:13:16.399Z,0.74
2022-12-01T04:15:44.200Z,0.76
2022-12-01T04:18:12.013Z,0.68
2022-12-01T04:20:39.447Z,0.60
2022-12-01T04:23:07.328Z,0.57
2022-12-01T04:25:34.780Z,0.56
2022-12-01T04:28:02.304Z,0.58
2022-12-01T04:30:30.023Z,0.53
2022-12-01T04:32:57.828Z,0.61
2022-12-01T04:35:25.309Z,0.67
2022-12-01T04:37:52.987Z,0.69
2022-12-01T04:40:21.708Z,0.65
2022-12-01T04:42:49.103Z,0.56
2022-12-01T04:45:16.780Z,0.56
2022-12-01T04:47:44.519Z,0.57
2022-12-01T04:50:12.045Z,0.50
2022-12-01T04:52:39.737Z,0.43
2022-12-01T04:55:08.517Z,0.41
2022-12-01T04:57:36.181Z,0.56
2022-12-01T05:00:12.980Z,0.48
2022-12-01T05:02:43.358Z,0.45
2022-12-01T05:05:11.985Z,0.57
2022-12-01T05:07:39.989Z,0.61
2022-12-01T05:10:08.201Z,0.81
2022-12-01T05:12:35.940Z,0.94
2022-12-01T05:15:03.616Z,1.08
2022-12-01T05:17:36.778Z,1.20
2022-12-01T05:20:24.296Z,1.00
2022-12-01T05:23:10.817Z,0.70
2022-12-01T05:25:40.371Z,0.58
2022-12-01T05:28:07.960Z,0.47
2022-12-01T05:30:35.409Z,0.54
2022-12-01T05:33:03.530Z,0.78
2022-12-01T05:35:33.823Z,0.98
2022-12-01T05:38:06.206Z,1.00
2022-12-01T05:40:36.499Z,0.78
2022-12-01T05:43:04.652Z,0.76
2022-12-01T05:45:32.408Z,0.78
2022-12-01T05:48:02.019Z,0.71
2022-12-01T05:50:30.439Z,0.59
2022-12-01T05:52:58.053Z,0.68
2022-12-01T05:55:25.809Z,0.47
2022-12-01T05:57:53.572Z,0.52
2022-12-01T06:00:21.388Z,0.44
2022-12-01T06:02:49.179Z,0.37
2022-12-01T06:05:16.857Z,0.43
2022-12-01T06:07:44.326Z,0.36
2022-12-01T06:10:13.199Z,0.45
2022-12-01T06:12:41.258Z,0.59
2022-12-01T06:15:10.608Z,0.21
2022-12-01T06:17:40.509Z,0.23
2022-12-01T06:20:09.619Z,0.19
2022-12-01T06:22:37.328Z,0.36
2022-12-01T06:25:05.443Z,0.45
2022-12-01T06:27:33.048Z,0.41
2022-12-01T06:30:00.527Z,0.34
2022-12-01T06:32:28.264Z,0.55
2022-12-01T06:34:55.697Z,0.65
2022-12-01T06:37:23.313Z,0.49
2022-12-01T06:39:51.208Z,0.28
2022-12-01T06:42:18.991Z,0.45
2022-12-01T06:44:46.434Z,0.48
2022-12-01T06:47:15.891Z,0.44
2022-12-01T06:49:44.255Z,0.57
2022-12-01T06:52:16.841Z,0.90
2022-12-01T06:54:53.658Z,0.93
2022-12-01T06:57:21.347Z,0.70
2022-12-01T06:59:51.419Z,0.67
2022-12-01T07:02:25.133Z,0.82
2022-12-01T07:04:53.175Z,0.98
2022-12-01T07:07:20.707Z,1.12
2022-12-01T07:09:48.953Z,1.12
2022-12-01T07:12:16.952Z,1.14
2022-12-01T07:14:45.211Z,0.72
2022-12-01T07:17:12.723Z,0.78
2022-12-01T07:19:40.700Z,0.74
2022-12-01T07:22:08.150Z,0.86
2022-12-01T07:24:36.289Z,0.84
2022-12-01T07:27:04.007Z,0.81
2022-12-01T07:29:31.455Z,0.83
2022-12-01T07:31:59.139Z,0.84
2022-12-01T07:34:26.877Z,0.81
2022-12-01T07:36:54.317Z,1.47
2022-12-01T07:39:21.785Z,1.19
2022-12-01T07:41:49.552Z,1.40
2022-12-01T07:44:17.063Z,1.57
2022-12-01T07:46:44.525Z,1.67
2022-12-01T07:49:14.865Z,1.50
2022-12-01T07:51:42.544Z,1.33
2022-12-01T07:54:10.822Z,1.21
2022-12-01T07:56:38.552Z,1.29
2022-12-01T07:59:06.329Z,1.49
2022-12-01T08:01:33.897Z,1.55
2022-12-01T08:04:01.690Z,1.41
2022-12-01T08:06:29.264Z,1.36
2022-12-01T08:08:56.806Z,1.52
2022-12-01T08:11:26.817Z,1.58
2022-12-01T08:13:54.301Z,1.78
2022-12-01T08:16:23.356Z,1.81
2022-12-01T08:18:51.577Z,2.01
2022-12-01T08:21:21.260Z,2.06
2022-12-01T08:23:52.515Z,1.89
2022-12-01T08:26:20.706Z,2.04
2022-12-01T08:28:49.517Z,2.10
2022-12-01T08:31:21.203Z,2.08
2022-12-01T08:33:50.611Z,2.27
2022-12-01T08:36:19.936Z,2.23
2022-12-01T08:38:49.386Z,2.27
2022-12-01T08:41:17.873Z,2.24
2022-12-01T08:44:01.753Z,2.18
2022-12-01T08:46:34.245Z,2.18
2022-12-01T08:49:03.785Z,2.23
2022-12-01T08:51:32.540Z,2.48
2022-12-01T08:54:01.625Z,2.42
2022-12-01T08:56:32.533Z,2.58
2022-12-01T08:59:00.982Z,2.63
2022-12-01T09:01:29.249Z,2.55
2022-12-01T09:04:10.556Z,2.67
2022-12-01T09:06:43.527Z,2.81
2022-12-01T09:09:13.435Z,2.70
2022-12-01T09:11:43.778Z,2.80
2022-12-01T09:14:13.157Z,2.79
2022-12-01T09:16:42.546Z,2.66
2022-12-01T09:19:13.082Z,2.65
2022-12-01T09:21:43.472Z,2.82
2022-12-01T09:24:13.193Z,3.10
2022-12-01T09:26:41.774Z,3.05
2022-12-01T09:29:11.866Z,3.13
2022-12-01T09:31:40.105Z,3.24
2022-12-01T09:34:12.045Z,3.33
2022-12-01T09:36:39.792Z,3.42
2022-12-01T09:39:08.547Z,3.54
2022-12-01T09:41:50.014Z,3.44
2022-12-01T09:44:38.509Z,3.63
2022-12-01T09:47:29.147Z,4.02
2022-12-01T09:50:21.909Z,4.09
2022-12-01T09:52:57.770Z,3.96
2022-12-01T09:55:26.758Z,4.30
2022-12-01T09:57:57.465Z,4.05
2022-12-01T10:00:31.102Z,4.31
2022-12-01T10:03:01.883Z,4.39
2022-12-01T10:05:40.726Z,4.56
2022-12-01T10:08:22.417Z,4.64
2022-12-01T10:10:58.584Z,4.48
2022-12-01T10:13:28.977Z,4.42
2022-12-01T10:16:09.431Z,4.49
2022-12-01T10:18:56.467Z,4.29
2022-12-01T10:21:39.188Z,4.29
2022-12-01T10:24:27.172Z,4.41
2022-12-01T10:27:26.622Z,4.50
2022-12-01T10:30:03.214Z,4.40
2022-12-01T10:32:55.037Z,4.76
2022-12-01T10:35:27.259Z,5.07
2022-12-01T10:38:04.085Z,4.85
2022-12-01T10:40:35.218Z,4.86
2022-12-01T10:43:03.281Z,5.07
2022-12-01T10:45:37.296Z,5.04
2022-12-01T10:48:16.503Z,4.98
2022-12-01T10:50:50.470Z,4.99
2022-12-01T10:53:24.381Z,4.92
2022-12-01T10:56:09.608Z,4.85
2022-12-01T10:58:43.846Z,5.25
2022-12-01T11:01:24.046Z,5.47
2022-12-01T11:04:01.827Z,5.43
2022-12-01T11:06:31.193Z,5.33
2022-12-01T11:09:02.266Z,5.22
2022-12-01T11:11:40.621Z,5.46
2022-12-01T11:14:23.855Z,5.38
2022-12-01T11:16:54.002Z,5.18
2022-12-01T11:19:26.857Z,5.31
2022-12-01T11:22:17.994Z,5.44
2022-12-01T11:24:58.663Z,5.50
2022-12-01T11:27:31.464Z,5.52
2022-12-01T11:30:05.542Z,5.22
2022-12-01T11:32:37.893Z,5.48
2022-12-01T11:35:21.054Z,5.53
2022-12-01T11:38:21.060Z,5.57
2022-12-01T11:43:30.508Z,5.58
2022-12-01T11:46:02.553Z,5.59
2022-12-01T11:48:32.366Z,5.64
2022-12-01T11:51:06.888Z,5.57
2022-12-01T11:53:43.046Z,5.63
2022-12-01T11:56:28.794Z,5.55
2022-12-01T11:59:01.516Z,5.69
2022-12-01T12:01:50.658Z,5.65
2022-12-01T12:04:49.250Z,5.59
2022-12-01T12:07:19.952Z,5.70
2022-12-01T12:10:09.674Z,5.71
2022-12-01T12:13:02.997Z,5.55
2022-12-01T12:16:04.648Z,5.67
2022-12-01T12:18:55.764Z,5.87
2022-12-01T12:21:33.260Z,5.68
2022-12-01T12:24:19.595Z,5.78
2022-12-01T12:27:26.697Z,5.58
2022-12-01T12:30:15.740Z,5.73
2022-12-01T12:33:08.596Z,5.83
2022-12-01T12:36:00.620Z,5.75
2022-12-01T12:38:31.316Z,5.88
2022-12-01T12:41:13.732Z,5.90
2022-12-01T12:44:00.152Z,5.95
2022-12-01T12:46:49.540Z,5.93
2022-12-01T12:49:55.157Z,6.06
2022-12-01T12:52:31.748Z,6.09
2022-12-01T12:55:10.993Z,6.14
2022-12-01T12:57:45.531Z,5.93
2022-12-01T13:00:20.334Z,6.14
2022-12-01T13:03:09.555Z,6.12
2022-12-01T13:05:57.653Z,6.08
2022-12-01T13:08:34.212Z,5.92
2022-12-01T13:11:10.163Z,5.93
2022-12-01T13:13:46.091Z,6.03
2022-12-01T13:16:19.764Z,5.59
2022-12-01T13:18:59.836Z,5.76
2022-12-01T13:21:27.951Z,5.72
2022-12-01T13:23:55.626Z,5.67
2022-12-01T13:26:23.404Z,5.68
2022-12-01T13:28:55.584Z,5.58
2022-12-01T13:31:23.306Z,5.58
2022-12-01T13:34:06.180Z,5.64
2022-12-01T13:36:49.692Z,5.78
2022-12-01T13:39:25.478Z,5.68
2022-12-01T13:42:01.117Z,5.56
2022-12-01T13:44:34.325Z,5.47
2022-12-01T13:47:24.705Z,5.54
2022-12-01T13:49:54.715Z,5.48
2022-12-01T13:52:22.294Z,5.49
2022-12-01T13:55:07.728Z,5.31
2022-12-01T13:57:38.741Z,5.30
2022-12-01T14:00:08.979Z,5.28
2022-12-01T14:02:39.827Z,5.17
2022-12-01T14:05:42.053Z,5.21
2022-12-01T14:08:55.301Z,5.22
2022-12-01T14:11:25.670Z,5.09
2022-12-01T14:14:00.799Z,4.96
2022-12-01T14:16:57.422Z,4.91
2022-12-01T14:19:32.709Z,4.82
2022-12-01T14:22:01.781Z,4.79
2022-12-01T14:24:38.179Z,4.79
2022-12-01T14:27:07.361Z,4.65
2022-12-01T14:29:39.865Z,4.59
2022-12-01T14:32:08.281Z,4.53
2022-12-01T14:34:39.471Z,4.55
2022-12-01T14:37:14.360Z,4.50
2022-12-01T14:39:45.716Z,4.44
2022-12-01T14:42:48.760Z,4.42
2022-12-01T14:45:25.116Z,4.35
2022-12-01T14:48:01.963Z,4.50
2022-12-01T14:50:51.417Z,4.36
2022-12-01T16:01:14.957Z,3.76
2022-12-01T16:04:06.502Z,3.72
2022-12-01T16:06:36.609Z,3.82
2022-12-01T16:09:16.973Z,3.79
2022-12-01T16:12:09.812Z,3.69
2022-12-01T16:15:08.336Z,3.71
2022-12-01T16:17:48.244Z,3.60
2022-12-01T16:20:34.357Z,3.55
2022-12-01T16:23:11.495Z,3.49
2022-12-01T16:25:43.581Z,3.47
2022-12-01T16:28:28.173Z,3.47
2022-12-01T16:30:56.722Z,3.24
2022-12-01T16:33:26.772Z,3.29
2022-12-01T16:35:54.917Z,3.19
2022-12-01T16:38:25.232Z,3.16
2022-12-01T16:40:54.956Z,3.15
2022-12-01T16:43:25.874Z,3.10
2022-12-01T16:46:03.262Z,2.95
2022-12-01T16:48:31.608Z,3.01
2022-12-01T16:51:03.416Z,3.02
2022-12-01T16:53:31.537Z,2.97
2022-12-01T16:56:01.728Z,3.02
2022-12-01T16:58:29.580Z,2.96
2022-12-01T17:00:57.648Z,3.00
2022-12-01T17:03:27.191Z,3.04
2022-12-01T17:05:55.103Z,2.95
2022-12-01T17:08:23.182Z,2.81
2022-12-01T17:10:51.789Z,2.83
2022-12-01T17:13:23.289Z,2.83
2022-12-01T17:15:53.550Z,2.67
2022-12-01T17:18:23.380Z,2.53
2022-12-01T17:21:03.632Z,2.55
2022-12-01T17:23:33.044Z,2.56
2022-12-01T17:26:01.308Z,2.48
2022-12-01T17:28:28.820Z,2.46
2022-12-01T17:31:00.501Z,2.33
2022-12-01T17:33:28.352Z,2.29
2022-12-01T17:36:00.221Z,2.30
2022-12-01T17:38:28.258Z,2.39
2022-12-01T17:41:11.422Z,2.14
2022-12-01T17:43:40.184Z,2.28
2022-12-01T17:46:09.558Z,2.21
2022-12-01T17:48:47.115Z,2.17
2022-12-01T17:51:15.688Z,2.09
2022-12-01T17:53:43.456Z,2.08
2022-12-01T17:56:13.215Z,1.70
2022-12-01T17:58:41.505Z,1.76
2022-12-01T18:01:17.764Z,1.62
2022-12-01T18:03:46.994Z,1.70
2022-12-01T18:06:15.779Z,1.73
2022-12-01T18:08:43.429Z,1.68
2022-12-01T18:11:14.436Z,1.65
2022-12-01T18:13:44.772Z,1.67
2022-12-01T18:16:20.287Z,1.60
2022-12-01T18:18:48.818Z,1.63
2022-12-01T18:21:19.607Z,1.65
2022-12-01T18:23:52.492Z,1.80
2022-12-01T18:26:22.008Z,1.67
2022-12-01T18:29:07.528Z,1.62
2022-12-01T18:31:35.744Z,1.49
2022-12-01T18:34:04.820Z,1.58
2022-12-01T18:36:34.665Z,1.56
2022-12-01T18:39:04.375Z,1.52
2022-12-01T18:41:32.387Z,1.43
2022-12-01T18:44:00.320Z,1.43
2022-12-01T18:46:29.063Z,1.42
2022-12-01T18:49:04.661Z,1.42
2022-12-01T18:51:35.130Z,1.45
2022-12-01T18:54:04.732Z,1.51
2022-12-01T18:56:33.116Z,1.54
2022-12-01T18:59:06.857Z,1.50
2022-12-01T19:01:37.977Z,1.54
2022-12-01T19:04:07.080Z,1.47
2022-12-01T19:06:36.796Z,1.46
2022-12-01T19:09:06.941Z,1.48
2022-12-01T19:11:37.742Z,1.33
2022-12-01T19:14:06.016Z,1.35
2022-12-01T19:16:33.879Z,1.43
2022-12-01T19:19:02.014Z,1.51
2022-12-01T19:21:29.784Z,1.51
2022-12-01T19:24:00.272Z,1.43
2022-12-01T19:26:28.094Z,1.44
2022-12-01T19:28:55.992Z,1.44
2022-12-01T19:31:24.940Z,1.51
2022-12-01T19:33:54.049Z,1.49
2022-12-01T20:06:37.263Z,1.50
2022-12-01T20:09:07.143Z,1.47
2022-12-01T20:11:35.561Z,1.48
2022-12-01T20:14:07.415Z,1.43
2022-12-01T20:16:35.707Z,1.14
2022-12-01T20:19:05.276Z,0.91
2022-12-01T20:21:42.177Z,0.98
2022-12-01T20:24:16.358Z,1.30
2022-12-01T20:26:52.798Z,1.32
2022-12-01T20:29:27.338Z,1.26
2022-12-01T20:32:02.943Z,1.38
2022-12-01T20:34:36.167Z,1.49
2022-12-01T20:37:04.541Z,1.51
2022-12-01T20:39:34.693Z,1.65
2022-12-01T20:42:02.218Z,1.66
2022-12-01T20:44:29.629Z,1.61
2022-12-01T20:46:57.870Z,1.57
2022-12-01T20:49:25.985Z,1.82
2022-12-01T20:51:53.668Z,1.89
2022-12-01T20:54:30.036Z,1.78
2022-12-01T20:56:58.957Z,1.89
2022-12-01T20:59:27.780Z,1.95
2022-12-01T21:01:55.610Z,1.97
2022-12-01T21:04:23.500Z,1.97
2022-12-01T21:06:51.984Z,1.95
2022-12-01T21:09:19.591Z,2.03
2022-12-01T21:12:09.245Z,1.74
2022-12-01T21:14:59.761Z,1.71
2022-12-01T21:17:38.467Z,1.49
2022-12-01T21:20:21.457Z,1.49
2022-12-01T21:22:50.646Z,1.71
2022-12-01T21:25:22.878Z,1.92
2022-12-01T21:27:50.706Z,2.00
2022-12-01T21:30:22.584Z,2.15
2022-12-01T21:32:50.431Z,2.15
2022-12-01T21:35:24.834Z,2.18
2022-12-01T21:38:02.163Z,1.96
2022-12-01T21:40:30.891Z,2.21
2022-12-01T21:43:11.905Z,2.28
2022-12-01T21:45:39.660Z,2.26
2022-12-01T21:48:16.772Z,2.29
2022-12-01T21:50:48.084Z,2.30
2022-12-01T21:53:20.530Z,2.39
2022-12-01T21:55:49.323Z,2.26
2022-12-01T21:58:19.420Z,2.34
2022-12-01T22:00:46.932Z,2.48
2022-12-01T22:03:31.481Z,2.52
2022-12-01T22:06:29.232Z,2.50
2022-12-01T22:09:01.441Z,2.61
2022-12-01T22:11:30.740Z,2.65
2022-12-01T22:14:19.865Z,2.46
2022-12-01T22:16:53.101Z,2.39
2022-12-01T22:19:35.453Z,2.48
2022-12-01T22:22:23.786Z,2.37
2022-12-01T22:25:25.284Z,2.63
2022-12-01T22:27:52.766Z,2.31
2022-12-01T22:30:22.965Z,2.54
2022-12-01T22:32:50.449Z,2.46
2022-12-01T22:35:28.817Z,2.56
2022-12-01T22:38:05.764Z,2.48
2022-12-01T22:40:40.687Z,2.17
2022-12-01T22:43:17.872Z,2.44
2022-12-01T22:45:48.151Z,2.61
2022-12-01T22:48:46.766Z,2.67
2022-12-01T22:51:14.191Z,2.57
2022-12-01T22:53:44.708Z,2.70
2022-12-01T22:56:36.507Z,2.70
2022-12-01T22:59:21.847Z,2.68
2022-12-01T23:02:00.599Z,2.68
2022-12-01T23:04:33.127Z,2.76
2022-12-01T23:07:04.021Z,2.75
2022-12-01T23:09:36.645Z,2.80
2022-12-01T23:12:10.258Z,2.88
2022-12-01T23:14:43.485Z,2.88
2022-12-01T23:17:18.928Z,2.93
2022-12-01T23:19:48.380Z,2.92
2022-12-01T23:22:16.755Z,2.98
2022-12-01T23:24:44.788Z,3.07
2022-12-01T23:27:18.397Z,3.06
2022-12-01T23:29:46.112Z,2.96
2022-12-01T23:32:14.238Z,3.14
2022-12-01T23:34:41.652Z,3.05
2022-12-01T23:37:28.992Z,3.10
2022-12-01T23:39:57.177Z,3.15
2022-12-01T23:42:24.581Z,3.13
2022-12-01T23:44:53.019Z,3.13
2022-12-01T23:47:27.175Z,3.15
2022-12-01T23:50:06.764Z,3.16
2022-12-01T23:52:36.595Z,3.03
2022-12-01T23:55:22.076Z,3.10
2022-12-01T23:57:51.431Z,3.05
